createdAt,value
2023-08-05T00:00:09.673Z,1.83
2023-08-05T00:02:36.369Z,2.05
2023-08-05T00:05:03.113Z,2.20
2023-08-05T00:07:29.779Z,1.88
2023-08-05T00:09:56.447Z,2.88
2023-08-05T00:12:23.133Z,2.20
2023-08-05T00:14:49.822Z,1.73
2023-08-05T00:17:16.600Z,1.73
2023-08-05T00:19:43.868Z,2.00
2023-08-05T00:22:10.708Z,2.25
2023-08-05T00:24:38.034Z,2.30
2023-08-05T00:27:04.996Z,2.08
2023-08-05T00:29:31.986Z,1.90
2023-08-05T00:31:58.718Z,1.95
2023-08-05T00:34:26.416Z,2.00
2023-08-05T00:36:53.309Z,1.90
2023-08-05T00:39:20.004Z,1.80
2023-08-05T00:41:46.667Z,2.28
2023-08-05T00:44:13.318Z,2.40
2023-08-05T00:46:40.001Z,2.13
2023-08-05T00:49:06.668Z,2.00
2023-08-05T00:51:33.352Z,2.30
2023-08-05T00:54:00.166Z,2.05
2023-08-05T00:56:26.814Z,2.08
2023-08-05T00:58:53.538Z,2.53
2023-08-05T01:01:20.217Z,2.30
2023-08-05T01:03:47.234Z,2.20
2023-08-05T01:06:13.953Z,2.30
2023-08-05T01:08:40.619Z,2.17
2023-08-05T01:11:07.263Z,2.78
2023-08-05T01:13:33.973Z,2.55
2023-08-05T01:16:00.703Z,2.38
2023-08-05T01:18:27.487Z,2.38
2023-08-05T01:20:55.086Z,2.90
2023-08-05T01:23:37.411Z,2.83
2023-08-05T01:26:05.659Z,2.55
2023-08-05T01:28:33.538Z,2.90
2023-08-05T01:31:00.464Z,2.83
2023-08-05T01:33:27.153Z,2.88
2023-08-05T01:35:53.820Z,2.85
2023-08-05T01:38:20.484Z,2.75
2023-08-05T01:40:47.146Z,2.75
2023-08-05T01:43:13.853Z,2.92
2023-08-05T01:45:40.686Z,2.97
2023-08-05T01:48:07.408Z,3.55
2023-08-05T01:50:35.359Z,3.30
2023-08-05T01:53:02.016Z,3.55
2023-08-05T01:55:28.694Z,3.42
2023-08-05T01:57:55.456Z,3.17
2023-08-05T02:00:22.659Z,3.38
2023-08-05T02:02:49.454Z,3.28
2023-08-05T02:05:16.245Z,3.60
2023-08-05T02:07:42.909Z,3.85
2023-08-05T02:10:09.839Z,3.60
2023-08-05T02:12:36.553Z,3.50
2023-08-05T02:15:03.419Z,3.58
2023-08-05T02:17:30.151Z,3.72
2023-08-05T02:19:56.851Z,3.45
2023-08-05T02:22:23.536Z,4.80
2023-08-05T02:24:50.238Z,3.53
2023-08-05T02:27:16.924Z,3.95
2023-08-05T02:29:43.613Z,4.75
2023-08-05T02:32:10.288Z,3.78
2023-08-05T02:34:37.080Z,4.72
2023-08-05T02:37:03.903Z,4.57
2023-08-05T02:39:30.595Z,4.65
2023-08-05T02:41:57.391Z,4.15
2023-08-05T02:44:24.082Z,4.05
2023-08-05T02:46:51.154Z,3.85
2023-08-05T02:49:17.965Z,3.63
2023-08-05T02:51:44.638Z,4.35
2023-08-05T02:54:11.351Z,4.70
2023-08-05T02:56:38.741Z,4.28
2023-08-05T02:59:05.485Z,4.20
2023-08-05T03:01:32.197Z,4.60
2023-08-05T03:03:59.069Z,4.15
2023-08-05T03:06:25.771Z,4.63
2023-08-05T03:08:52.435Z,4.22
2023-08-05T03:11:19.090Z,4.45
2023-08-05T03:13:45.760Z,5.13
2023-08-05T03:16:13.334Z,4.35
2023-08-05T03:18:40.090Z,3.97
2023-08-05T03:21:06.769Z,4.40
2023-08-05T03:23:33.488Z,4.85
2023-08-05T03:26:00.142Z,3.90
2023-08-05T03:28:26.811Z,4.50
2023-08-05T03:30:53.463Z,4.88
2023-08-05T03:33:20.199Z,4.75
2023-08-05T03:35:46.889Z,4.85
2023-08-05T03:38:13.622Z,6.03
2023-08-05T03:40:40.324Z,5.45
2023-08-05T03:43:06.979Z,5.90
2023-08-05T03:45:33.646Z,6.47
2023-08-05T03:48:00.367Z,6.57
2023-08-05T03:50:29.772Z,6.85
2023-08-05T03:52:56.912Z,7.50
2023-08-05T03:55:23.701Z,7.32
2023-08-05T03:57:50.646Z,8.70
2023-08-05T04:00:18.236Z,9.30
2023-08-05T04:02:45.341Z,9.10
2023-08-05T04:05:12.089Z,10.10
2023-08-05T04:07:38.784Z,10.90
2023-08-05T04:10:07.225Z,10.55
2023-08-05T04:12:36.671Z,9.52
2023-08-05T04:15:04.562Z,12.75
2023-08-05T04:17:31.307Z,12.70
2023-08-05T04:19:58.028Z,14.27
2023-08-05T04:22:26.527Z,13.55
2023-08-05T04:24:54.184Z,12.82
2023-08-05T04:27:22.986Z,13.65
2023-08-05T04:29:50.150Z,14.48
2023-08-05T04:32:16.846Z,14.82
2023-08-05T04:34:45.106Z,13.68
2023-08-05T04:37:19.685Z,11.55
2023-08-05T04:39:46.607Z,15.65
2023-08-05T04:42:13.635Z,13.63
2023-08-05T04:44:43.554Z,13.82
2023-08-05T04:47:13.472Z,12.70
2023-08-05T04:49:43.370Z,13.48
2023-08-05T04:52:10.110Z,13.65
2023-08-05T04:54:40.249Z,12.90
2023-08-05T04:57:07.313Z,8.80
2023-08-05T04:59:34.048Z,11.27
2023-08-05T05:02:00.759Z,9.73
2023-08-05T05:04:27.417Z,6.63
2023-08-05T05:06:54.118Z,7.40
2023-08-05T05:09:20.862Z,8.68
2023-08-05T05:11:47.681Z,8.75
2023-08-05T05:14:14.364Z,6.47
2023-08-05T05:16:41.073Z,9.65
2023-08-05T05:19:07.821Z,7.80
2023-08-05T05:21:34.493Z,6.25
2023-08-05T05:24:01.162Z,5.90
2023-08-05T05:26:27.828Z,6.72
2023-08-05T05:28:54.505Z,6.28
2023-08-05T05:31:23.149Z,6.38
2023-08-05T05:33:52.455Z,7.10
2023-08-05T05:36:19.188Z,6.40
2023-08-05T05:38:45.908Z,6.25
2023-08-05T05:41:12.606Z,6.45
2023-08-05T05:43:39.820Z,6.65
2023-08-05T05:46:06.841Z,6.97
2023-08-05T05:48:33.592Z,7.35
2023-08-05T05:51:00.424Z,6.18
2023-08-05T05:53:27.138Z,6.13
2023-08-05T05:55:54.756Z,6.22
2023-08-05T05:58:21.557Z,6.68
2023-08-05T06:00:48.265Z,7.25
2023-08-05T06:03:15.106Z,8.07
2023-08-05T06:05:41.929Z,8.07
2023-08-05T06:08:08.581Z,7.70
2023-08-05T06:10:38.920Z,7.50
2023-08-05T06:13:05.818Z,6.63
2023-08-05T06:15:32.561Z,7.05
2023-08-05T06:17:59.545Z,6.60
2023-08-05T06:20:26.303Z,6.47
2023-08-05T06:22:52.968Z,6.22
2023-08-05T06:25:19.636Z,6.38
2023-08-05T06:27:46.288Z,6.35
2023-08-05T06:30:13.849Z,6.90
2023-08-05T06:32:40.606Z,6.13
2023-08-05T06:35:07.715Z,6.38
2023-08-05T06:37:34.501Z,6.75
2023-08-05T06:40:01.170Z,5.53
2023-08-05T06:42:27.811Z,5.68
2023-08-05T06:44:55.384Z,4.63
2023-08-05T06:47:22.137Z,10.68
2023-08-05T06:49:48.866Z,4.80
2023-08-05T06:52:15.536Z,19.30
2023-08-05T06:54:42.208Z,3.53
2023-08-05T06:57:08.951Z,4.32
2023-08-05T06:59:35.648Z,7.85
2023-08-05T07:02:02.399Z,2.78
2023-08-05T07:04:29.329Z,2.08
2023-08-05T07:06:56.113Z,2.30
2023-08-05T07:09:22.801Z,2.20
2023-08-05T07:11:49.863Z,1.90
2023-08-05T07:14:16.849Z,1.77
2023-08-05T07:16:43.571Z,2.00
2023-08-05T07:19:11.882Z,1.60
2023-08-05T07:21:38.744Z,1.50
2023-08-05T07:24:05.627Z,1.70
2023-08-05T07:26:32.459Z,1.90
2023-08-05T07:28:59.123Z,1.80
2023-08-05T07:31:25.799Z,1.70
2023-08-05T07:33:52.755Z,1.80
2023-08-05T07:36:23.284Z,1.83
2023-08-05T07:38:51.342Z,1.90
2023-08-05T07:41:18.157Z,1.70
2023-08-05T07:43:45.069Z,1.77
2023-08-05T07:46:15.118Z,2.55
2023-08-05T07:48:43.151Z,1.98
2023-08-05T07:51:10.007Z,2.42
2023-08-05T07:53:37.413Z,1.83
2023-08-05T07:56:13.924Z,1.70
2023-08-05T07:58:43.140Z,1.40
2023-08-05T08:01:10.251Z,1.80
2023-08-05T08:03:37.138Z,1.42
2023-08-05T08:06:04.607Z,1.63
2023-08-05T08:08:31.294Z,2.08
2023-08-05T08:10:58.062Z,1.77
2023-08-05T08:13:24.720Z,1.75
2023-08-05T08:15:51.493Z,2.05
2023-08-05T08:18:18.235Z,2.08
2023-08-05T08:20:52.203Z,2.00
2023-08-05T08:23:19.107Z,1.70
2023-08-05T08:25:46.179Z,1.90
2023-08-05T08:28:12.935Z,1.60
2023-08-05T08:30:39.629Z,1.55
2023-08-05T08:33:06.433Z,1.80
2023-08-05T08:35:33.175Z,1.70
2023-08-05T08:37:59.857Z,1.55
2023-08-05T08:40:26.545Z,1.95
2023-08-05T08:42:53.220Z,2.17
2023-08-05T08:45:19.888Z,1.92
2023-08-05T08:47:46.597Z,1.85
2023-08-05T08:50:13.302Z,2.05
2023-08-05T08:52:41.964Z,1.80
2023-08-05T08:55:09.900Z,1.80
2023-08-05T08:57:36.674Z,2.00
2023-08-05T09:00:04.216Z,1.40
2023-08-05T09:02:31.028Z,1.63
2023-08-05T09:04:57.794Z,1.58
2023-08-05T09:07:28.308Z,1.30
2023-08-05T09:09:55.014Z,1.40
2023-08-05T09:12:21.681Z,1.95
2023-08-05T09:14:54.961Z,1.90
2023-08-05T09:17:21.689Z,1.43
2023-08-05T09:19:48.397Z,1.50
2023-08-05T09:22:15.066Z,1.30
2023-08-05T09:24:41.749Z,1.63
2023-08-05T09:27:08.450Z,1.20
2023-08-05T09:29:38.097Z,1.77
2023-08-05T09:32:05.726Z,1.50
2023-08-05T09:34:39.389Z,1.50
2023-08-05T09:37:06.888Z,1.55
2023-08-05T09:39:48.395Z,1.50
2023-08-05T09:42:25.676Z,2.03
2023-08-05T09:44:58.608Z,1.40
2023-08-05T09:47:30.174Z,1.67
2023-08-05T09:49:57.672Z,2.00
2023-08-05T09:52:25.253Z,1.63
2023-08-05T09:55:04.001Z,1.60
2023-08-05T09:57:31.763Z,2.25
2023-08-05T10:00:03.647Z,1.77
2023-08-05T10:02:33.854Z,1.70
2023-08-05T10:05:00.568Z,1.70
2023-08-05T10:07:28.421Z,1.63
2023-08-05T10:09:55.092Z,1.40
2023-08-05T10:12:27.916Z,2.45
2023-08-05T10:14:58.735Z,1.30
2023-08-05T10:17:25.565Z,2.47
2023-08-05T10:19:52.277Z,1.92
2023-08-05T10:22:25.723Z,1.77
2023-08-05T10:24:57.572Z,1.60
2023-08-05T10:27:40.742Z,1.33
2023-08-05T10:30:11.313Z,1.48
2023-08-05T10:32:57.179Z,1.60
2023-08-05T10:35:27.657Z,1.70
2023-08-05T10:38:15.159Z,1.60
2023-08-05T10:41:04.631Z,1.50
2023-08-05T10:43:34.274Z,1.65
2023-08-05T10:46:07.075Z,1.52
2023-08-05T10:48:39.759Z,1.58
2023-08-05T10:51:13.206Z,1.80
2023-08-05T10:53:40.460Z,1.80
2023-08-05T10:56:12.826Z,1.73
2023-08-05T10:58:46.135Z,1.60
2023-08-05T11:01:12.818Z,1.57
2023-08-05T11:03:43.463Z,1.58
2023-08-05T11:06:11.270Z,1.52
2023-08-05T11:08:39.488Z,1.75
2023-08-05T11:11:14.566Z,1.30
2023-08-05T11:13:45.786Z,1.58
2023-08-05T11:16:13.593Z,1.40
2023-08-05T11:18:41.835Z,1.20
2023-08-05T11:21:19.032Z,1.20
2023-08-05T11:23:47.026Z,1.38
2023-08-05T11:26:14.157Z,1.33
2023-08-05T11:28:47.086Z,1.60
2023-08-05T11:31:31.987Z,1.70
2023-08-05T11:33:59.877Z,1.42
2023-08-05T11:36:27.240Z,1.67
2023-08-05T11:38:58.193Z,1.55
2023-08-05T11:41:25.584Z,1.65
2023-08-05T11:43:52.245Z,1.80
2023-08-05T11:46:28.694Z,1.55
2023-08-05T11:49:08.652Z,1.45
2023-08-05T11:52:09.980Z,1.30
2023-08-05T11:54:36.653Z,1.70
2023-08-05T11:57:18.170Z,1.60
2023-08-05T11:59:49.344Z,1.35
2023-08-05T12:02:19.102Z,1.95
2023-08-05T12:04:50.268Z,1.38
2023-08-05T12:07:20.774Z,1.70
2023-08-05T12:10:04.978Z,1.80
2023-08-05T12:12:31.686Z,1.40
2023-08-05T12:15:12.019Z,1.52
2023-08-05T12:17:39.706Z,1.25
2023-08-05T12:20:10.157Z,1.55
2023-08-05T12:22:37.163Z,1.55
2023-08-05T12:25:03.966Z,1.50
2023-08-05T12:27:30.636Z,1.85
2023-08-05T12:29:57.352Z,1.23
2023-08-05T12:32:24.083Z,1.33
2023-08-05T12:34:50.787Z,1.27
2023-08-05T12:37:17.554Z,1.60
2023-08-05T12:39:44.213Z,1.55
2023-08-05T12:42:11.341Z,1.40
2023-08-05T12:44:38.257Z,1.40
2023-08-05T12:47:04.958Z,2.00
2023-08-05T12:49:31.647Z,1.50
2023-08-05T12:51:58.393Z,1.38
2023-08-05T12:54:25.079Z,1.50
2023-08-05T12:56:51.951Z,1.70
2023-08-05T12:59:18.628Z,1.35
2023-08-05T13:01:46.481Z,2.10
2023-08-05T13:04:13.239Z,1.25
2023-08-05T13:06:42.961Z,1.40
2023-08-05T13:09:09.730Z,1.17
2023-08-05T13:11:36.434Z,1.40
2023-08-05T13:14:03.261Z,1.73
2023-08-05T13:16:30.027Z,1.48
2023-08-05T13:18:56.705Z,1.30
2023-08-05T13:21:23.382Z,1.35
2023-08-05T13:23:50.135Z,1.55
2023-08-05T13:26:16.806Z,1.33
2023-08-05T13:28:43.501Z,1.60
2023-08-05T13:31:10.160Z,1.27
2023-08-05T13:33:38.672Z,1.40
2023-08-05T13:36:05.772Z,1.40
2023-08-05T13:38:32.499Z,1.23
2023-08-05T13:40:59.170Z,1.40
2023-08-05T13:43:26.127Z,1.80
2023-08-05T13:45:55.196Z,1.33
2023-08-05T13:48:22.136Z,1.80
2023-08-05T13:50:48.851Z,1.67
2023-08-05T13:53:15.527Z,2.20
2023-08-05T13:55:42.201Z,2.65
2023-08-05T13:58:08.862Z,2.20
2023-08-05T14:00:38.726Z,2.00
2023-08-05T14:03:05.569Z,1.17
2023-08-05T14:05:33.669Z,1.42
2023-08-05T14:08:00.324Z,1.30
2023-08-05T14:10:27.003Z,1.50
2023-08-05T14:12:53.641Z,1.52
2023-08-05T14:15:20.299Z,1.48
2023-08-05T14:17:46.965Z,1.80
2023-08-05T14:20:13.728Z,1.48
2023-08-05T14:22:40.399Z,1.30
2023-08-05T14:25:07.375Z,1.60
2023-08-05T14:27:34.013Z,1.70
2023-08-05T14:30:21.297Z,1.70
2023-08-05T14:32:47.353Z,1.52
2023-08-05T14:35:14.003Z,1.23
2023-08-05T14:37:40.674Z,1.70
2023-08-05T14:40:08.122Z,1.40
2023-08-05T14:42:34.796Z,1.60
2023-08-05T14:45:01.462Z,2.20
2023-08-05T14:47:28.186Z,1.75
2023-08-05T14:49:54.844Z,1.83
2023-08-05T14:52:21.517Z,1.77
2023-08-05T14:54:48.159Z,1.70
2023-08-05T14:57:14.831Z,2.60
2023-08-05T14:59:41.476Z,2.47
2023-08-05T15:02:08.187Z,1.60
2023-08-05T15:04:34.874Z,2.50
2023-08-05T15:07:01.541Z,2.47
2023-08-05T15:09:28.243Z,1.85
2023-08-05T15:11:54.961Z,1.67
2023-08-05T15:14:24.156Z,1.50
2023-08-05T15:16:51.090Z,1.73
2023-08-05T15:19:17.744Z,1.67
2023-08-05T15:21:44.436Z,2.00
2023-08-05T15:24:11.127Z,1.77
2023-08-05T15:26:38.122Z,2.25
2023-08-05T15:29:05.160Z,2.60
2023-08-05T15:31:31.968Z,2.33
2023-08-05T15:33:58.691Z,2.10
2023-08-05T15:36:25.363Z,4.18
2023-08-05T15:38:52.086Z,4.55
2023-08-05T15:41:18.812Z,4.88
2023-08-05T15:43:45.599Z,2.22
2023-08-05T15:46:12.331Z,4.13
2023-08-05T15:48:39.052Z,2.72
2023-08-05T15:51:05.696Z,2.28
2023-08-05T15:53:32.632Z,1.88
2023-08-05T15:56:03.147Z,2.70
2023-08-05T15:58:30.052Z,2.10
2023-08-05T16:01:03.095Z,3.00
2023-08-05T16:03:29.928Z,3.00
2023-08-05T16:06:11.836Z,2.63
2023-08-05T16:08:38.711Z,3.30
2023-08-05T16:11:07.062Z,2.63
2023-08-05T16:13:33.964Z,2.60
2023-08-05T16:16:10.638Z,2.67
2023-08-05T16:18:37.649Z,3.95
2023-08-05T16:21:21.054Z,3.78
2023-08-05T16:23:49.914Z,11.00
2023-08-05T16:26:17.751Z,3.42
2023-08-05T16:28:44.776Z,25.05
2023-08-05T16:31:11.494Z,26.67
2023-08-05T16:33:39.159Z,9.38
2023-08-05T16:36:06.938Z,3.45
2023-08-05T16:38:33.746Z,9.00
2023-08-05T16:41:00.747Z,3.08
2023-08-05T16:43:29.416Z,2.22
2023-08-05T16:45:56.279Z,1.80
2023-08-05T16:48:23.607Z,1.70
2023-08-05T16:50:50.346Z,1.92
2023-08-05T16:53:17.046Z,2.40
2023-08-05T16:55:43.727Z,3.92
2023-08-05T16:58:10.410Z,2.92
2023-08-05T17:00:37.107Z,3.42
2023-08-05T17:03:04.358Z,8.18
2023-08-05T17:05:31.053Z,2.45
2023-08-05T17:07:57.855Z,2.20
2023-08-05T17:10:24.984Z,2.35
2023-08-05T17:12:51.738Z,1.88
2023-08-05T17:15:18.440Z,1.73
2023-08-05T17:17:45.260Z,2.00
2023-08-05T17:20:12.218Z,2.25
2023-08-05T17:22:39.239Z,1.60
2023-08-05T17:25:06.269Z,2.35
2023-08-05T17:27:33.073Z,2.90
2023-08-05T17:29:59.732Z,3.03
2023-08-05T17:32:26.545Z,4.03
2023-08-05T17:34:53.218Z,3.20
2023-08-05T17:37:19.932Z,3.55
2023-08-05T17:39:46.633Z,3.78
2023-08-05T17:42:13.366Z,4.10
2023-08-05T17:44:40.085Z,4.60
2023-08-05T17:47:06.880Z,8.77
2023-08-05T17:49:33.569Z,3.65
2023-08-05T17:52:00.302Z,4.00
2023-08-05T17:54:27.082Z,2.88
2023-08-05T17:56:53.878Z,3.70
2023-08-05T17:59:20.707Z,3.00
2023-08-05T18:01:47.457Z,2.35
2023-08-05T18:04:18.024Z,3.20
2023-08-05T18:06:44.964Z,3.75
2023-08-05T18:09:11.717Z,3.67
2023-08-05T18:11:38.626Z,4.72
2023-08-05T18:14:05.322Z,5.05
2023-08-05T18:16:32.085Z,3.08
2023-08-05T18:18:59.152Z,2.58
2023-08-05T18:21:26.182Z,2.40
2023-08-05T18:23:53.318Z,3.67
2023-08-05T18:26:20.347Z,3.42
2023-08-05T18:28:50.157Z,2.45
2023-08-05T18:31:17.811Z,2.60
2023-08-05T18:33:44.859Z,2.10
2023-08-05T18:36:11.592Z,1.73
2023-08-05T18:38:38.402Z,1.67
2023-08-05T18:41:06.421Z,1.40
2023-08-05T18:43:33.577Z,1.60
2023-08-05T18:46:00.455Z,1.50
2023-08-05T18:48:27.209Z,1.40
2023-08-05T18:50:54.267Z,1.75
2023-08-05T18:53:20.945Z,1.80
2023-08-05T18:55:48.263Z,1.77
2023-08-05T18:58:14.945Z,1.85
2023-08-05T19:00:41.907Z,1.38
2023-08-05T19:03:08.850Z,1.60
2023-08-05T19:05:35.578Z,1.88
2023-08-05T19:08:02.307Z,1.77
2023-08-05T19:10:28.992Z,1.70
2023-08-05T19:12:55.702Z,1.42
2023-08-05T19:15:22.393Z,1.67
2023-08-05T19:17:49.066Z,1.90
2023-08-05T19:20:17.096Z,2.33
2023-08-05T19:22:45.999Z,28.20
2023-08-05T19:25:12.805Z,4.45
2023-08-05T19:27:52.421Z,2.25
2023-08-05T19:30:23.489Z,1.95
2023-08-05T19:32:53.475Z,2.00
2023-08-05T19:35:22.248Z,1.60
2023-08-05T19:37:48.906Z,1.75
2023-08-05T19:40:15.620Z,1.92
2023-08-05T19:42:42.305Z,2.03
2023-08-05T19:45:09.169Z,1.70
2023-08-05T19:47:40.932Z,1.75
2023-08-05T19:50:10.614Z,1.73
2023-08-05T19:52:37.289Z,2.00
2023-08-05T19:55:05.394Z,1.60
2023-08-05T19:57:32.135Z,2.40
2023-08-05T19:59:58.795Z,2.00
2023-08-05T20:02:25.564Z,2.03
2023-08-05T20:04:54.106Z,1.90
2023-08-05T20:07:20.851Z,2.10
2023-08-05T20:09:47.602Z,2.00
2023-08-05T20:12:14.290Z,1.85
2023-08-05T20:14:40.966Z,2.20
2023-08-05T20:17:07.615Z,1.98
2023-08-05T20:19:34.318Z,1.90
2023-08-05T20:22:01.042Z,2.10
2023-08-05T20:24:27.713Z,1.88
2023-08-05T20:26:54.433Z,2.22
2023-08-05T20:29:21.100Z,2.30
2023-08-05T20:31:48.750Z,2.47
2023-08-05T20:34:15.424Z,2.70
2023-08-05T20:36:42.119Z,2.45
2023-08-05T20:39:10.316Z,2.58
2023-08-05T20:41:37.002Z,2.92
2023-08-05T20:44:03.867Z,2.85
2023-08-05T20:46:30.672Z,2.70
2023-08-05T20:48:57.381Z,3.00
2023-08-05T20:51:26.115Z,2.50
2023-08-05T20:53:52.792Z,2.63
2023-08-05T20:56:19.471Z,2.80
2023-08-05T20:58:46.195Z,2.97
2023-08-05T21:01:15.808Z,2.45
2023-08-05T21:03:42.578Z,3.20
2023-08-05T21:06:09.602Z,3.20
2023-08-05T21:08:36.283Z,3.38
2023-08-05T21:11:05.359Z,3.20
2023-08-05T21:13:32.355Z,3.40
2023-08-05T21:15:59.112Z,3.30
2023-08-05T21:18:25.833Z,3.10
2023-08-05T21:20:52.552Z,3.50
2023-08-05T21:23:19.301Z,2.75
2023-08-05T21:25:46.015Z,3.40
2023-08-05T21:28:12.742Z,3.22
2023-08-05T21:30:39.543Z,2.70
2023-08-05T21:33:06.248Z,3.15
2023-08-05T21:35:32.971Z,3.00
2023-08-05T21:37:59.670Z,3.00
2023-08-05T21:40:26.319Z,3.47
2023-08-05T21:42:53.046Z,2.80
2023-08-05T21:45:20.569Z,2.58
2023-08-05T21:47:48.794Z,2.60
2023-08-05T21:50:15.581Z,2.83
2023-08-05T21:52:42.252Z,2.75
2023-08-05T21:55:09.021Z,3.22
2023-08-05T21:57:35.682Z,2.80
2023-08-05T22:00:04.771Z,3.00
2023-08-05T22:02:31.476Z,2.88
2023-08-05T22:04:58.260Z,2.50
2023-08-05T22:07:25.045Z,3.08
2023-08-05T22:09:51.705Z,2.88
2023-08-05T22:12:18.454Z,2.47
2023-08-05T22:14:45.120Z,2.38
2023-08-05T22:17:11.766Z,2.83
2023-08-05T22:19:38.432Z,2.60
2023-08-05T22:22:05.361Z,2.40
2023-08-05T22:24:41.145Z,2.30
2023-08-05T22:27:09.684Z,2.30
2023-08-05T22:29:36.353Z,2.55
2023-08-05T22:32:05.009Z,2.70
2023-08-05T22:34:31.934Z,2.72
2023-08-05T22:36:58.621Z,2.30
2023-08-05T22:39:25.286Z,2.75
2023-08-05T22:41:52.199Z,2.58
2023-08-05T22:44:19.032Z,3.45
2023-08-05T22:46:45.712Z,3.38
2023-08-05T22:49:12.381Z,3.00
2023-08-05T22:51:39.045Z,2.90
2023-08-05T22:54:05.745Z,2.47
2023-08-05T22:56:32.660Z,2.30
2023-08-05T22:58:59.368Z,2.40
2023-08-05T23:01:26.229Z,2.80
2023-08-05T23:03:53.326Z,3.13
2023-08-05T23:06:20.423Z,2.53
2023-08-05T23:08:47.290Z,2.22
2023-08-05T23:11:14.073Z,2.90
2023-08-05T23:13:40.756Z,2.38
2023-08-05T23:16:13.907Z,2.70
2023-08-05T23:18:40.733Z,2.67
2023-08-05T23:21:07.649Z,2.47
2023-08-05T23:23:34.352Z,2.28
2023-08-05T23:26:04.394Z,3.10
2023-08-05T23:28:31.328Z,2.67
2023-08-05T23:30:58.552Z,2.13
2023-08-05T23:33:25.260Z,2.30
2023-08-05T23:35:57.189Z,2.78
2023-08-05T23:38:23.852Z,2.60
2023-08-05T23:40:50.595Z,2.42
2023-08-05T23:43:18.411Z,2.45
2023-08-05T23:45:46.312Z,2.90
2023-08-05T23:48:13.116Z,2.60
2023-08-05T23:50:39.864Z,2.53
2023-08-05T23:53:06.603Z,2.95
2023-08-05T23:55:33.257Z,2.95
2023-08-05T23:58:00.025Z,2.63
